createdAt,value
2015-01-08T19:04:05.626Z,101325
2015-01-08T19:06:09.205Z,101337
2015-01-08T19:09:51.775Z,101342
2015-01-08T19:12:07.318Z,101348
2015-01-08T19:13:51.927Z,100516
2015-01-08T19:14:09.656Z,100510
2015-01-08T19:14:27.538Z,100519
2015-01-08T19:14:44.807Z,100510
2015-01-08T19:15:03.322Z,100498
2015-01-08T19:15:20.435Z,100492
2015-01-08T19:15:37.550Z,100507
2015-01-08T19:15:54.804Z,100504
2015-01-08T19:16:11.918Z,100504
2015-01-08T19:16:29.165Z,100516
2015-01-08T19:16:46.281Z,100501
2015-01-08T19:17:04.029Z,100513
2015-01-08T19:17:21.911Z,100501
2015-01-08T19:17:39.825Z,100504
2015-01-08T19:17:56.936Z,100504
2015-01-08T19:18:13.422Z,100504
2015-01-08T19:18:31.306Z,100507
2015-01-08T19:18:47.921Z,100495
2015-01-08T19:19:05.173Z,100504
2015-01-08T19:19:21.786Z,100504
2015-01-08T19:19:38.397Z,100504
2015-01-08T19:19:55.645Z,100498
2015-01-08T19:20:13.397Z,100504
2015-01-08T19:20:31.281Z,100501
2015-01-08T19:20:48.527Z,100487
2015-01-08T19:21:05.818Z,100490
2015-01-08T19:21:23.575Z,100495
2015-01-08T19:21:41.957Z,100498
2015-01-08T19:22:00.470Z,100510
2015-01-08T19:22:18.853Z,100504
2015-01-08T19:22:37.237Z,100507
2015-01-08T19:22:55.618Z,100501
2015-01-08T19:23:13.370Z,100498
2015-01-08T19:23:30.637Z,100501
2015-01-08T19:23:47.945Z,100498
2015-01-08T19:24:04.389Z,100503
2015-01-08T19:24:20.905Z,100492
2015-01-08T19:24:37.495Z,100495
2015-01-08T19:24:53.973Z,100495
2015-01-08T19:25:10.452Z,100500
2015-01-08T19:25:26.937Z,100492
2015-01-08T19:25:43.455Z,100492
2015-01-08T19:26:01.376Z,100500
2015-01-08T19:26:19.625Z,100492
2015-01-08T19:26:39.298Z,100500
2015-01-08T19:26:58.266Z,100497
2015-01-08T19:27:16.920Z,100489
2015-01-08T19:27:34.058Z,100494
2015-01-08T19:27:54.320Z,100494
2015-01-08T19:28:16.396Z,100494
2015-01-08T19:28:34.241Z,100500
2015-01-08T19:28:54.400Z,100494
2015-01-08T19:29:14.561Z,100494
2015-01-08T19:29:34.378Z,100497
2015-01-08T19:29:54.771Z,100486
2015-01-08T19:30:13.213Z,100500
2015-01-08T19:30:31.644Z,100503
2015-01-08T19:30:50.260Z,100491
2015-01-08T19:31:08.127Z,100491
2015-01-08T19:31:25.831Z,100488
2015-01-08T19:31:43.580Z,100494
2015-01-08T19:32:00.192Z,100497
2015-01-08T19:32:17.303Z,100494
2015-01-08T19:32:35.186Z,100486
2015-01-08T19:32:52.433Z,100494
2015-01-08T19:33:10.178Z,100488
2015-01-08T19:33:28.063Z,100494
2015-01-08T19:33:45.177Z,100494
2015-01-08T19:34:03.991Z,100506
2015-01-08T19:34:21.107Z,100494
2015-01-08T19:34:38.861Z,100500
2015-01-08T19:34:56.605Z,100494
2015-01-08T19:35:14.352Z,100497
2015-01-08T19:35:31.603Z,100505
2015-01-08T19:35:50.118Z,100499
2015-01-08T19:36:08.897Z,100505
2015-01-08T19:36:26.642Z,100505
2015-01-08T19:36:45.163Z,100514
2015-01-08T19:37:04.321Z,100502
2015-01-08T19:37:22.070Z,100517
2015-01-08T19:37:40.583Z,100502
2015-01-08T19:37:57.830Z,100511
2015-01-08T19:38:15.711Z,100502
2015-01-08T19:38:32.827Z,100508
2015-01-08T19:38:50.089Z,100526
2015-01-08T19:39:08.081Z,100505
2015-01-08T19:39:24.561Z,100511
2015-01-08T19:39:42.442Z,100508
2015-01-08T19:40:00.590Z,100508
2015-01-08T19:40:18.456Z,100508
2015-01-08T19:40:34.935Z,100503
2015-01-08T19:40:51.418Z,100517
2015-01-08T19:41:09.302Z,100508
2015-01-08T19:41:27.053Z,100508
2015-01-08T19:41:44.627Z,100514
2015-01-08T19:42:03.105Z,100508
2015-01-08T19:42:19.587Z,100511
2015-01-08T19:42:37.471Z,100520
2015-01-08T19:42:55.334Z,100526
2015-01-08T19:43:13.085Z,100520
2015-01-08T19:43:29.703Z,100523
2015-01-08T19:43:46.320Z,100517
2015-01-08T19:44:03.436Z,100520
2015-01-08T19:44:22.087Z,100514
2015-01-08T19:44:40.393Z,100517
2015-01-08T19:44:58.136Z,100514
2015-01-08T19:45:13.986Z,100517
2015-01-08T19:45:30.470Z,100523
2015-01-08T19:45:48.217Z,100514
2015-01-08T19:46:10.061Z,100503
